createdAt,value
2022-12-09T00:01:30.811Z,2.00
2022-12-09T00:04:00.511Z,2.00
2022-12-09T00:06:31.870Z,2.00
2022-12-09T00:09:03.791Z,2.00
2022-12-09T00:11:33.362Z,2.00
2022-12-09T00:14:02.847Z,1.90
2022-12-09T00:16:32.321Z,1.90
2022-12-09T00:19:01.578Z,1.90
2022-12-09T00:21:32.362Z,1.90
2022-12-09T00:24:05.069Z,2.00
2022-12-09T00:26:34.538Z,2.00
2022-12-09T00:29:03.596Z,2.00
2022-12-09T00:31:34.786Z,2.00
2022-12-09T00:34:06.112Z,2.00
2022-12-09T00:36:35.899Z,2.00
2022-12-09T00:39:07.166Z,2.00
2022-12-09T00:41:36.717Z,2.00
2022-12-09T00:44:06.017Z,2.00
2022-12-09T00:46:35.338Z,2.00
2022-12-09T00:49:05.601Z,2.10
2022-12-09T00:51:35.137Z,2.10
2022-12-09T00:54:06.098Z,2.10
2022-12-09T00:56:35.633Z,2.10
2022-12-09T00:59:05.046Z,2.10
2022-12-09T01:01:33.946Z,2.10
2022-12-09T01:04:03.722Z,2.00
2022-12-09T01:06:32.851Z,2.00
2022-12-09T01:09:03.116Z,1.90
2022-12-09T01:11:34.008Z,1.90
2022-12-09T01:14:04.617Z,1.90
2022-12-09T01:16:35.847Z,1.80
2022-12-09T01:19:07.040Z,1.80
2022-12-09T01:21:36.428Z,1.80
2022-12-09T01:24:10.223Z,1.80
2022-12-09T01:26:41.630Z,1.80
2022-12-09T01:29:10.947Z,1.80
2022-12-09T01:31:40.000Z,1.80
2022-12-09T01:34:08.919Z,1.80
2022-12-09T01:36:37.636Z,1.80
2022-12-09T01:39:07.583Z,1.90
2022-12-09T01:41:37.696Z,1.90
2022-12-09T01:44:14.223Z,1.90
2022-12-09T01:46:43.604Z,1.90
2022-12-09T01:49:18.335Z,1.80
2022-12-09T01:51:53.350Z,1.80
2022-12-09T01:54:22.202Z,1.90
2022-12-09T01:56:51.619Z,1.80
2022-12-09T01:59:22.934Z,1.80
2022-12-09T02:01:58.155Z,1.90
2022-12-09T02:04:29.949Z,1.80
2022-12-09T02:07:01.604Z,1.90
2022-12-09T02:09:30.876Z,1.70
2022-12-09T02:12:11.429Z,1.70
2022-12-09T02:14:46.332Z,1.60
2022-12-09T02:17:27.064Z,1.70
2022-12-09T02:20:07.210Z,1.70
2022-12-09T02:22:41.745Z,1.80
2022-12-09T02:25:25.101Z,1.80
2022-12-09T02:28:14.254Z,1.70
2022-12-09T02:30:53.588Z,1.70
2022-12-09T02:33:41.338Z,1.80
2022-12-09T02:36:18.422Z,1.80
2022-12-09T02:38:51.688Z,1.70
2022-12-09T02:41:24.971Z,1.70
2022-12-09T02:44:09.591Z,1.80
2022-12-09T02:46:39.696Z,1.80
2022-12-09T02:49:12.385Z,1.80
2022-12-09T02:51:47.039Z,1.80
2022-12-09T02:54:19.571Z,1.70
2022-12-09T02:56:56.018Z,1.80
2022-12-09T02:59:26.317Z,1.80
2022-12-09T03:02:17.174Z,1.70
2022-12-09T03:04:58.417Z,1.70
2022-12-09T03:07:43.436Z,1.60
2022-12-09T03:10:18.825Z,1.70
2022-12-09T03:12:53.757Z,1.70
2022-12-09T03:15:29.079Z,1.70
2022-12-09T03:18:01.752Z,1.70
2022-12-09T03:20:34.338Z,1.70
2022-12-09T03:23:06.479Z,1.70
2022-12-09T03:25:40.695Z,1.70
2022-12-09T03:28:15.749Z,1.70
2022-12-09T03:30:47.066Z,1.70
2022-12-09T03:33:19.653Z,1.70
2022-12-09T03:35:54.708Z,1.70
2022-12-09T03:38:29.921Z,1.70
2022-12-09T03:41:09.208Z,1.70
2022-12-09T03:43:44.642Z,1.60
2022-12-09T03:46:13.892Z,1.70
2022-12-09T03:48:43.535Z,1.60
2022-12-09T03:51:17.682Z,1.60
2022-12-09T03:53:53.362Z,1.60
2022-12-09T03:56:28.601Z,1.60
2022-12-09T03:59:02.178Z,1.50
2022-12-09T04:01:32.996Z,1.70
2022-12-09T04:04:02.481Z,1.50
2022-12-09T04:06:31.659Z,1.40
2022-12-09T04:09:03.222Z,1.40
2022-12-09T04:11:32.600Z,1.40
2022-12-09T04:14:01.918Z,1.30
2022-12-09T04:16:31.154Z,1.40
2022-12-09T04:19:00.071Z,1.40
2022-12-09T04:21:29.525Z,1.40
2022-12-09T04:23:58.408Z,1.40
2022-12-09T04:26:30.441Z,1.50
2022-12-09T04:29:01.916Z,1.40
2022-12-09T04:31:31.046Z,1.40
2022-12-09T04:34:08.369Z,1.50
2022-12-09T04:36:39.579Z,1.50
2022-12-09T04:39:08.930Z,1.50
2022-12-09T04:41:40.536Z,1.50
2022-12-09T04:44:10.120Z,1.50
2022-12-09T04:46:40.388Z,1.50
2022-12-09T04:49:09.619Z,1.50
2022-12-09T04:51:40.140Z,1.50
2022-12-09T04:54:14.664Z,1.50
2022-12-09T04:56:45.197Z,1.50
2022-12-09T04:59:16.263Z,1.50
2022-12-09T05:01:45.813Z,1.50
2022-12-09T05:04:15.461Z,1.50
2022-12-09T05:06:44.934Z,1.40
2022-12-09T05:09:15.187Z,1.40
2022-12-09T05:11:46.326Z,1.40
2022-12-09T05:14:15.898Z,1.40
2022-12-09T05:16:45.444Z,1.30
2022-12-09T05:19:14.530Z,1.30
2022-12-09T05:21:44.262Z,1.20
2022-12-09T05:24:13.660Z,1.10
2022-12-09T05:26:43.029Z,1.10
2022-12-09T05:29:17.978Z,0.30
2022-12-09T05:31:52.430Z,1.10
2022-12-09T05:34:22.143Z,1.10
2022-12-09T05:36:52.497Z,1.10
2022-12-09T05:39:21.612Z,1.00
2022-12-09T05:41:50.639Z,1.00
2022-12-09T05:44:21.504Z,1.00
2022-12-09T05:46:50.765Z,1.00
2022-12-09T05:49:21.217Z,1.00
2022-12-09T05:51:50.869Z,1.00
2022-12-09T05:54:20.223Z,1.00
2022-12-09T05:56:51.386Z,1.00
2022-12-09T05:59:23.249Z,1.00
2022-12-09T06:01:53.903Z,0.90
2022-12-09T06:04:23.665Z,1.00
2022-12-09T06:06:53.444Z,1.00
2022-12-09T06:09:23.422Z,1.00
2022-12-09T06:11:53.006Z,1.00
2022-12-09T06:14:23.624Z,1.10
2022-12-09T06:16:53.338Z,1.10
2022-12-09T06:19:22.752Z,1.20
2022-12-09T06:21:52.744Z,1.20
2022-12-09T06:24:22.532Z,1.20
2022-12-09T06:26:55.040Z,1.30
2022-12-09T06:29:25.195Z,1.50
2022-12-09T06:31:54.903Z,1.40
2022-12-09T06:34:24.794Z,1.30
2022-12-09T06:36:54.262Z,1.30
2022-12-09T06:39:24.027Z,1.30
2022-12-09T06:41:53.436Z,1.30
2022-12-09T06:44:24.342Z,1.30
2022-12-09T06:46:55.382Z,1.50
2022-12-09T06:49:24.820Z,1.50
2022-12-09T06:51:54.070Z,1.50
2022-12-09T06:54:23.677Z,1.50
2022-12-09T06:56:53.225Z,1.40
2022-12-09T06:59:22.403Z,1.90
2022-12-09T07:01:51.902Z,1.20
2022-12-09T07:04:23.251Z,1.30
2022-12-09T07:06:52.722Z,1.30
2022-12-09T07:09:22.934Z,1.30
2022-12-09T07:11:52.209Z,1.40
2022-12-09T07:14:21.472Z,1.50
2022-12-09T07:16:51.456Z,1.60
2022-12-09T07:19:24.792Z,1.60
2022-12-09T07:21:54.611Z,1.60
2022-12-09T07:24:23.766Z,1.70
2022-12-09T07:26:53.983Z,1.70
2022-12-09T07:29:23.550Z,1.70
2022-12-09T07:31:53.086Z,1.90
2022-12-09T07:34:25.856Z,2.10
2022-12-09T07:36:55.443Z,2.10
2022-12-09T07:39:24.703Z,2.10
2022-12-09T07:41:55.050Z,2.00
2022-12-09T07:44:24.818Z,2.10
2022-12-09T07:46:55.132Z,2.10
2022-12-09T07:49:26.499Z,2.10
2022-12-09T07:51:55.613Z,2.20
2022-12-09T07:54:24.594Z,2.10
2022-12-09T07:56:53.630Z,1.90
2022-12-09T07:59:22.452Z,2.00
2022-12-09T08:01:51.599Z,2.20
2022-12-09T08:04:20.835Z,2.30
2022-12-09T08:06:51.825Z,2.30
2022-12-09T08:09:21.021Z,2.30
2022-12-09T08:11:50.285Z,2.30
2022-12-09T08:14:19.423Z,2.20
2022-12-09T08:16:48.551Z,2.00
2022-12-09T08:19:17.762Z,1.90
2022-12-09T08:21:52.870Z,2.00
2022-12-09T08:24:24.822Z,2.20
2022-12-09T08:26:54.199Z,2.30
2022-12-09T08:29:23.208Z,2.40
2022-12-09T08:31:52.434Z,2.40
2022-12-09T08:34:22.262Z,2.10
2022-12-09T08:36:52.272Z,2.00
2022-12-09T08:39:22.627Z,2.10
2022-12-09T08:41:52.984Z,2.00
2022-12-09T08:44:23.420Z,2.10
2022-12-09T08:46:53.859Z,2.00
2022-12-09T08:49:25.123Z,2.30
2022-12-09T08:51:55.495Z,2.30
2022-12-09T08:54:25.088Z,2.20
2022-12-09T08:56:57.043Z,2.20
2022-12-09T08:59:26.255Z,2.30
2022-12-09T09:01:55.559Z,2.40
2022-12-09T09:04:25.206Z,2.50
2022-12-09T09:06:54.885Z,2.40
2022-12-09T09:09:23.758Z,2.40
2022-12-09T09:11:55.382Z,2.50
2022-12-09T09:14:26.304Z,2.50
2022-12-09T09:16:55.441Z,2.50
2022-12-09T09:19:27.634Z,2.70
2022-12-09T09:21:57.686Z,2.70
2022-12-09T09:24:27.688Z,2.50
2022-12-09T09:26:58.213Z,2.40
2022-12-09T09:29:28.853Z,2.30
2022-12-09T09:31:58.500Z,2.30
2022-12-09T09:34:29.759Z,2.50
2022-12-09T09:36:59.961Z,2.60
2022-12-09T09:39:29.521Z,2.60
2022-12-09T09:42:08.166Z,2.70
2022-12-09T09:44:41.944Z,2.70
2022-12-09T09:47:17.756Z,2.90
2022-12-09T09:49:55.464Z,2.90
2022-12-09T09:52:26.952Z,2.90
2022-12-09T09:54:58.081Z,3.00
2022-12-09T09:57:34.649Z,3.00
2022-12-09T10:00:19.335Z,3.00
2022-12-09T10:02:59.868Z,2.90
2022-12-09T10:05:33.001Z,2.80
2022-12-09T10:08:20.879Z,2.80
2022-12-09T10:10:56.768Z,2.80
2022-12-09T10:13:49.940Z,2.90
2022-12-09T10:16:24.204Z,2.90
2022-12-09T10:19:08.933Z,2.90
2022-12-09T10:21:43.417Z,2.90
2022-12-09T10:24:24.396Z,2.90
2022-12-09T10:27:01.401Z,3.00
2022-12-09T10:29:58.339Z,3.00
2022-12-09T10:32:30.919Z,3.00
2022-12-09T10:35:00.573Z,2.90
2022-12-09T10:37:34.544Z,3.00
2022-12-09T10:40:16.867Z,3.00
2022-12-09T10:43:06.461Z,3.00
2022-12-09T10:46:16.915Z,3.00
2022-12-09T10:48:37.653Z,3.20
2022-12-09T10:51:12.265Z,3.30
2022-12-09T10:53:48.689Z,3.30
2022-12-09T10:56:25.195Z,3.20
2022-12-09T10:59:11.542Z,3.00
2022-12-09T11:01:54.750Z,2.90
2022-12-09T11:04:26.975Z,3.10
2022-12-09T11:07:00.820Z,3.20
2022-12-09T11:09:32.679Z,3.30
2022-12-09T11:12:05.829Z,3.40
2022-12-09T11:14:38.190Z,3.50
2022-12-09T11:17:17.802Z,3.50
2022-12-09T11:19:51.503Z,3.60
2022-12-09T11:22:33.871Z,3.70
2022-12-09T11:25:25.806Z,3.70
2022-12-09T11:27:57.721Z,3.50
2022-12-09T11:30:29.324Z,3.30
2022-12-09T11:33:28.267Z,3.20
2022-12-09T11:36:02.852Z,3.20
2022-12-09T11:38:35.595Z,3.20
2022-12-09T11:41:41.892Z,3.20
2022-12-09T11:44:25.899Z,3.20
2022-12-09T11:47:02.832Z,3.30
2022-12-09T11:49:37.753Z,3.90
2022-12-09T11:52:23.489Z,3.40
2022-12-09T11:55:02.080Z,3.20
2022-12-09T11:57:37.779Z,3.30
2022-12-09T12:00:15.939Z,3.00
2022-12-09T12:02:49.793Z,3.10
2022-12-09T12:05:24.746Z,3.30
2022-12-09T12:08:09.849Z,3.30
2022-12-09T12:10:42.526Z,3.30
2022-12-09T12:13:17.864Z,3.30
2022-12-09T12:15:52.256Z,3.40
2022-12-09T12:18:23.667Z,3.30
2022-12-09T12:21:11.046Z,3.30
2022-12-09T12:24:10.321Z,3.10
2022-12-09T12:26:45.204Z,2.90
2022-12-09T12:29:31.124Z,2.70
2022-12-09T12:32:11.210Z,2.60
2022-12-09T12:34:47.597Z,2.60
2022-12-09T12:37:31.628Z,2.50
2022-12-09T12:40:08.954Z,2.40
2022-12-09T12:43:12.349Z,2.20
2022-12-09T12:46:07.364Z,2.10
2022-12-09T12:48:48.393Z,2.10
2022-12-09T12:51:29.255Z,2.10
2022-12-09T12:54:07.358Z,2.20
2022-12-09T12:56:41.983Z,2.20
2022-12-09T12:59:19.462Z,2.20
2022-12-09T13:01:54.999Z,2.20
2022-12-09T13:04:28.673Z,2.20
2022-12-09T13:07:03.034Z,2.30
2022-12-09T13:09:39.690Z,2.20
2022-12-09T13:12:15.310Z,2.20
2022-12-09T13:14:52.789Z,2.30
2022-12-09T13:17:26.650Z,2.10
2022-12-09T13:20:00.225Z,2.00
2022-12-09T13:22:42.703Z,1.90
2022-12-09T13:25:22.962Z,1.80
2022-12-09T13:27:56.666Z,1.80
2022-12-09T13:30:34.077Z,1.80
2022-12-09T13:33:26.598Z,1.80
2022-12-09T13:36:06.241Z,1.80
2022-12-09T13:38:39.978Z,1.80
2022-12-09T13:41:53.277Z,1.70
2022-12-09T13:44:23.102Z,1.70
2022-12-09T13:46:52.653Z,1.50
2022-12-09T13:49:24.309Z,1.50
2022-12-09T13:51:55.251Z,1.50
2022-12-09T13:54:26.374Z,1.40
2022-12-09T13:57:14.641Z,1.40
2022-12-09T13:59:46.060Z,1.30
2022-12-09T14:02:23.518Z,1.20
2022-12-09T14:05:01.007Z,1.20
2022-12-09T14:07:35.795Z,1.20
2022-12-09T14:10:06.656Z,1.10
2022-12-09T14:13:19.362Z,1.10
2022-12-09T14:15:49.637Z,1.00
2022-12-09T14:18:32.666Z,0.80
2022-12-09T14:21:31.218Z,0.80
2022-12-09T14:24:42.252Z,0.70
2022-12-09T14:27:21.074Z,0.60
2022-12-09T14:29:57.576Z,0.60
2022-12-09T14:32:29.309Z,0.50
2022-12-09T14:35:08.595Z,0.40
2022-12-09T14:37:51.775Z,0.30
2022-12-09T14:41:01.020Z,0.40
2022-12-09T14:43:39.607Z,0.30
2022-12-09T14:46:22.393Z,0.60
2022-12-09T14:48:56.040Z,0.30
2022-12-09T14:51:28.653Z,0.20
2022-12-09T14:54:00.930Z,0.20
2022-12-09T14:56:32.013Z,0.20
2022-12-09T14:59:04.622Z,0.20
2022-12-09T15:04:32.934Z,0.20
2022-12-09T15:07:16.846Z,0.10
2022-12-09T15:09:53.919Z,0.00
2022-12-09T15:12:27.443Z,0.00
2022-12-09T15:14:59.185Z,0.00
2022-12-09T15:17:31.641Z,-0.10
2022-12-09T15:20:04.243Z,-0.10
2022-12-09T15:22:34.570Z,-0.20
2022-12-09T15:25:04.649Z,-0.20
2022-12-09T15:27:33.631Z,-0.10
2022-12-09T15:30:15.067Z,-0.20
2022-12-09T15:32:47.374Z,-0.20
2022-12-09T15:35:19.295Z,-0.20
2022-12-09T15:37:50.788Z,-0.30
2022-12-09T15:40:22.439Z,-0.20
2022-12-09T15:42:55.559Z,-0.30
2022-12-09T15:45:27.457Z,-0.30
2022-12-09T15:47:59.255Z,-0.20
2022-12-09T15:50:34.466Z,-0.10
2022-12-09T15:53:07.316Z,-0.10
2022-12-09T15:55:41.262Z,0.00
2022-12-09T15:58:14.428Z,0.00
2022-12-09T16:00:49.159Z,0.00
2022-12-09T16:03:19.866Z,0.00
2022-12-09T16:05:56.292Z,0.20
2022-12-09T16:08:33.222Z,0.20
2022-12-09T16:11:02.980Z,0.20
2022-12-09T16:13:35.822Z,0.30
2022-12-09T16:16:28.438Z,0.30
2022-12-09T16:18:57.642Z,0.20
2022-12-09T16:21:35.123Z,0.20
2022-12-09T16:24:08.997Z,0.20
2022-12-09T16:26:41.060Z,0.20
2022-12-09T16:29:17.752Z,0.10
2022-12-09T16:31:51.578Z,0.10
2022-12-09T16:34:24.090Z,0.00
2022-12-09T16:36:58.157Z,-0.10
2022-12-09T16:39:34.826Z,0.00
2022-12-09T16:42:03.821Z,-0.10
2022-12-09T16:44:35.760Z,-0.10
2022-12-09T16:47:13.434Z,-0.10
2022-12-09T16:49:45.415Z,-0.20
2022-12-09T16:52:18.424Z,-0.20
2022-12-09T16:54:49.197Z,-0.30
2022-12-09T16:57:20.400Z,-0.40
2022-12-09T16:59:49.337Z,-0.40
2022-12-09T17:02:24.451Z,-0.40
2022-12-09T17:04:53.651Z,-0.40
2022-12-09T17:07:23.808Z,-0.30
2022-12-09T17:09:52.549Z,0.50
2022-12-09T17:12:21.177Z,-0.30
2022-12-09T17:14:49.964Z,-0.40
2022-12-09T17:17:18.737Z,-0.30
2022-12-09T17:19:47.475Z,-0.30
2022-12-09T17:22:17.567Z,-0.30
2022-12-09T17:24:47.621Z,-0.20
2022-12-09T17:27:16.910Z,-0.20
2022-12-09T17:29:46.566Z,-0.20
2022-12-09T17:32:15.369Z,-0.20
2022-12-09T17:34:44.022Z,-0.20
2022-12-09T17:37:12.617Z,-0.10
2022-12-09T17:39:41.133Z,-0.10
2022-12-09T17:42:11.709Z,-0.10
2022-12-09T17:44:40.221Z,-0.10
2022-12-09T17:47:08.895Z,-0.10
2022-12-09T17:49:38.256Z,-0.10
2022-12-09T17:52:07.083Z,-0.10
2022-12-09T17:54:35.850Z,-0.10
2022-12-09T17:57:04.494Z,-0.10
2022-12-09T17:59:34.557Z,-0.10
2022-12-09T18:02:03.659Z,-0.10
2022-12-09T18:04:32.663Z,-0.20
2022-12-09T18:07:01.304Z,0.00
2022-12-09T18:09:29.841Z,-0.10
2022-12-09T18:11:58.489Z,-0.10
2022-12-09T18:14:27.586Z,0.00
2022-12-09T18:16:57.582Z,0.10
2022-12-09T18:19:27.150Z,0.00
2022-12-09T18:21:56.169Z,0.10
2022-12-09T18:24:24.694Z,0.10
2022-12-09T18:26:53.450Z,0.10
2022-12-09T18:29:22.216Z,0.10
2022-12-09T18:31:56.571Z,0.20
2022-12-09T18:34:28.149Z,0.20
2022-12-09T18:36:57.014Z,0.10
2022-12-09T18:39:25.610Z,0.20
2022-12-09T18:41:54.180Z,0.10
2022-12-09T18:44:22.728Z,0.20
2022-12-09T18:46:51.861Z,0.20
2022-12-09T18:49:22.145Z,0.20
2022-12-09T18:51:53.460Z,0.20
2022-12-09T18:54:24.326Z,0.40
2022-12-09T18:56:53.161Z,0.30
2022-12-09T18:59:23.328Z,0.30
2022-12-09T19:01:52.893Z,0.30
2022-12-09T19:04:23.390Z,0.30
2022-12-09T19:06:55.281Z,0.20
2022-12-09T19:09:26.633Z,0.30
2022-12-09T19:11:55.343Z,0.20
2022-12-09T19:14:24.837Z,0.20
2022-12-09T19:16:54.234Z,0.20
2022-12-09T19:19:27.458Z,0.20
2022-12-09T19:21:57.929Z,-1.20
2022-12-09T19:24:28.797Z,0.20
2022-12-09T19:26:58.350Z,0.20
2022-12-09T19:29:28.120Z,0.30
2022-12-09T19:31:58.475Z,0.30
2022-12-09T19:34:29.528Z,0.30
2022-12-09T19:37:01.750Z,0.30
2022-12-09T19:39:34.079Z,0.40
2022-12-09T19:42:05.133Z,0.40
2022-12-09T19:45:00.233Z,0.30
2022-12-09T19:47:23.182Z,0.30
2022-12-09T19:49:54.034Z,0.40
2022-12-09T19:52:23.938Z,0.30
2022-12-09T19:54:53.208Z,0.30
2022-12-09T19:57:22.428Z,0.30
2022-12-09T19:59:50.929Z,0.30
2022-12-09T20:02:19.620Z,0.40
2022-12-09T20:04:50.309Z,0.30
2022-12-09T20:07:19.775Z,0.30
2022-12-09T20:09:50.226Z,0.30
2022-12-09T20:12:19.223Z,0.90
2022-12-09T20:14:48.001Z,0.30
2022-12-09T20:17:17.586Z,0.30
2022-12-09T20:19:46.871Z,0.40
2022-12-09T20:22:15.895Z,0.40
2022-12-09T20:24:45.640Z,0.40
2022-12-09T20:27:15.705Z,0.40
2022-12-09T20:29:51.303Z,0.40
2022-12-09T20:32:24.933Z,0.40
2022-12-09T20:34:55.810Z,0.40
2022-12-09T20:37:24.772Z,0.40
2022-12-09T20:39:56.637Z,0.40
2022-12-09T20:42:28.121Z,0.40
2022-12-09T20:44:57.160Z,0.40
2022-12-09T20:47:25.907Z,0.40
2022-12-09T20:49:54.699Z,0.40
2022-12-09T20:52:23.667Z,0.50
2022-12-09T20:54:52.940Z,0.40
2022-12-09T20:57:21.476Z,0.40
2022-12-09T20:59:51.775Z,0.50
2022-12-09T21:02:20.536Z,0.50
2022-12-09T21:04:49.262Z,0.50
2022-12-09T21:07:18.308Z,0.60
2022-12-09T21:09:47.659Z,0.50
2022-12-09T21:12:16.796Z,0.60
2022-12-09T21:14:45.810Z,0.60
2022-12-09T21:17:16.038Z,0.60
2022-12-09T21:19:44.719Z,0.70
2022-12-09T21:22:15.868Z,0.60
2022-12-09T21:24:44.603Z,0.70
2022-12-09T21:27:13.446Z,0.80
2022-12-09T21:29:43.020Z,0.70
2022-12-09T21:32:11.683Z,0.70
2022-12-09T21:34:41.808Z,0.70
2022-12-09T21:37:12.013Z,0.80
2022-12-09T21:39:41.017Z,0.80
2022-12-09T21:42:11.860Z,0.80
2022-12-09T21:44:42.312Z,1.00
2022-12-09T21:47:10.972Z,0.80
2022-12-09T21:49:43.072Z,0.90
2022-12-09T21:52:11.597Z,0.90
2022-12-09T21:54:40.479Z,1.00
2022-12-09T21:57:09.010Z,1.00
2022-12-09T21:59:37.959Z,0.90
2022-12-09T22:02:07.142Z,1.00
2022-12-09T22:04:35.748Z,1.00
2022-12-09T22:07:06.077Z,1.10
2022-12-09T22:09:34.929Z,1.10
2022-12-09T22:12:03.773Z,1.10
2022-12-09T22:14:32.382Z,1.20
2022-12-09T22:17:02.528Z,1.20
2022-12-09T22:19:31.479Z,1.20
2022-12-09T22:22:04.593Z,1.20
2022-12-09T22:24:37.799Z,1.10
2022-12-09T22:27:07.279Z,1.20
2022-12-09T22:29:37.057Z,1.30
2022-12-09T22:32:06.191Z,1.30
2022-12-09T22:34:35.317Z,1.30
2022-12-09T22:37:27.688Z,1.30
2022-12-09T22:39:56.266Z,1.30
2022-12-09T22:42:25.530Z,1.30
2022-12-09T22:44:54.552Z,1.20
2022-12-09T22:47:24.434Z,1.20
2022-12-09T22:49:53.137Z,1.20
2022-12-09T22:52:22.012Z,1.10
2022-12-09T22:54:51.734Z,1.10
2022-12-09T22:57:22.471Z,1.10
2022-12-09T22:59:51.230Z,1.00
2022-12-09T23:02:20.484Z,1.10
2022-12-09T23:04:49.495Z,1.00
2022-12-09T23:07:18.165Z,0.90
2022-12-09T23:09:47.060Z,0.90
2022-12-09T23:12:15.969Z,0.90
2022-12-09T23:14:46.158Z,0.90
2022-12-09T23:17:15.133Z,0.90
2022-12-09T23:19:43.714Z,0.80
2022-12-09T23:22:12.516Z,0.80
2022-12-09T23:24:41.082Z,0.80
2022-12-09T23:27:10.265Z,0.80
2022-12-09T23:29:40.033Z,0.80
2022-12-09T23:32:10.092Z,0.80
2022-12-09T23:34:40.036Z,0.80
2022-12-09T23:37:08.590Z,0.80
2022-12-09T23:39:37.133Z,0.70
2022-12-09T23:42:06.138Z,0.70
2022-12-09T23:44:34.760Z,0.70
2022-12-09T23:47:03.654Z,0.80
2022-12-09T23:49:34.087Z,0.70
2022-12-09T23:52:03.278Z,0.70
2022-12-09T23:54:33.316Z,0.70
2022-12-09T23:57:02.004Z,0.70
2022-12-09T23:59:30.769Z,0.70
